createdAt,value
2022-10-23T00:01:52.827Z,98210.19
2022-10-23T00:04:54.144Z,98214.53
2022-10-23T00:07:56.329Z,98209.28
2022-10-23T00:10:57.732Z,98200.56
2022-10-23T00:13:59.571Z,98201.44
2022-10-23T00:17:00.959Z,98199.72
2022-10-23T00:20:02.289Z,98198.88
2022-10-23T00:23:03.694Z,98191.03
2022-10-23T00:26:05.967Z,98191.91
2022-10-23T00:29:07.380Z,98192.75
2022-10-23T00:32:08.760Z,98184.94
2022-10-23T00:35:10.151Z,98184.09
2022-10-23T00:38:11.520Z,98192.78
2022-10-23T00:41:17.766Z,98196.25
2022-10-23T00:44:19.037Z,98191.97
2022-10-23T00:47:20.408Z,98186.78
2022-10-23T00:50:21.959Z,98191.13
2022-10-23T00:53:23.316Z,98185.94
2022-10-23T00:56:25.527Z,98180.72
2022-10-23T00:59:26.957Z,98182.44
2022-10-23T01:02:28.339Z,98177.25
2022-10-23T01:05:30.768Z,98175.53
2022-10-23T01:08:33.375Z,98172.09
2022-10-23T01:11:42.396Z,98179.03
2022-10-23T01:14:48.156Z,98176.44
2022-10-23T01:17:55.455Z,98161.69
2022-10-23T01:21:06.033Z,98170.38
2022-10-23T01:24:10.221Z,98173.91
2022-10-23T01:27:44.160Z,98181.69
2022-10-23T01:30:45.595Z,98177.34
2022-10-23T01:33:51.566Z,98168.63
2022-10-23T01:36:53.142Z,98167.72
2022-10-23T01:39:55.286Z,98163.34
2022-10-23T01:42:57.219Z,98170.25
2022-10-23T01:45:59.890Z,98165.91
2022-10-23T01:49:01.286Z,98164.16
2022-10-23T01:52:03.041Z,98159.81
2022-10-23T01:55:04.513Z,98156.31
2022-10-23T01:58:07.330Z,98155.41
2022-10-23T02:01:08.932Z,98148.47
2022-10-23T02:04:10.637Z,98138.91
2022-10-23T02:07:12.010Z,98134.53
2022-10-23T02:10:13.410Z,98122.41
2022-10-23T02:13:14.717Z,98117.13
2022-10-23T02:16:34.839Z,98118.88
2022-10-23T02:19:40.460Z,98098.91
2022-10-23T02:22:42.535Z,98098.94
2022-10-23T02:25:47.246Z,98102.41
2022-10-23T02:28:49.610Z,98102.47
2022-10-23T02:31:50.980Z,98101.56
2022-10-23T02:34:52.292Z,98094.59
2022-10-23T02:37:54.369Z,98094.63
2022-10-23T02:40:56.162Z,98102.47
2022-10-23T02:44:15.831Z,98096.38
2022-10-23T02:47:22.691Z,98090.25
2022-10-23T02:50:36.044Z,98098.94
2022-10-23T02:53:49.710Z,98089.41
2022-10-23T02:56:53.424Z,98092.91
2022-10-23T02:59:59.161Z,98086.00
2022-10-23T03:03:06.804Z,98079.03
2022-10-23T03:06:08.149Z,98067.75
2022-10-23T03:09:09.470Z,98069.50
2022-10-23T03:12:10.837Z,98064.31
2022-10-23T03:15:12.616Z,98060.00
2022-10-23T03:18:13.991Z,98057.41
2022-10-23T03:21:15.378Z,98056.53
2022-10-23T03:24:16.712Z,98066.16
2022-10-23T03:27:18.079Z,98056.59
2022-10-23T03:30:19.472Z,98053.16
2022-10-23T03:33:20.795Z,98053.16
2022-10-23T03:36:22.166Z,98058.34
2022-10-23T03:39:23.565Z,98057.50
2022-10-23T03:42:24.960Z,98066.19
2022-10-23T03:45:26.308Z,98060.97
2022-10-23T03:48:27.911Z,98062.72
2022-10-23T03:51:29.334Z,98061.84
2022-10-23T03:54:30.844Z,98063.56
2022-10-23T03:57:32.281Z,98058.28
2022-10-23T04:00:33.673Z,98054.75
2022-10-23T04:03:35.042Z,98056.50
2022-10-23T04:06:36.394Z,98059.09
2022-10-23T04:09:37.960Z,98052.13
2022-10-23T04:12:39.412Z,98057.34
2022-10-23T04:15:40.968Z,98060.81
2022-10-23T04:18:42.318Z,98050.38
2022-10-23T04:21:43.888Z,98047.75
2022-10-23T04:24:46.725Z,98042.53
2022-10-23T04:27:48.382Z,98039.91
2022-10-23T04:30:49.763Z,98052.06
2022-10-23T04:33:51.104Z,98047.66
2022-10-23T04:36:52.532Z,98046.78
2022-10-23T04:39:53.933Z,98045.03
2022-10-23T04:42:55.299Z,98051.97
2022-10-23T04:45:56.750Z,98047.59
2022-10-23T04:48:58.118Z,98037.13
2022-10-23T04:51:59.497Z,98031.91
2022-10-23T04:55:00.861Z,98025.84
2022-10-23T04:58:02.200Z,98023.16
2022-10-23T05:01:03.717Z,98031.75
2022-10-23T05:04:05.163Z,98023.88
2022-10-23T05:07:06.580Z,98023.03
2022-10-23T05:10:08.164Z,98016.03
2022-10-23T05:13:09.522Z,98012.59
2022-10-23T05:16:11.293Z,97995.25
2022-10-23T05:19:13.781Z,98002.19
2022-10-23T05:22:15.116Z,98001.41
2022-10-23T05:25:16.625Z,97995.34
2022-10-23T05:28:17.955Z,97992.72
2022-10-23T05:31:19.306Z,97993.53
2022-10-23T05:34:20.733Z,97990.97
2022-10-23T05:37:22.087Z,97992.66
2022-10-23T05:40:24.056Z,97989.22
2022-10-23T05:43:27.246Z,97998.75
2022-10-23T05:46:28.979Z,97994.44
2022-10-23T05:49:30.301Z,97990.09
2022-10-23T05:52:31.644Z,97995.34
2022-10-23T05:55:33.896Z,97996.19
2022-10-23T05:58:35.329Z,97990.19
2022-10-23T06:01:36.872Z,98000.59
2022-10-23T06:04:38.310Z,97997.13
2022-10-23T06:07:39.744Z,98003.22
2022-10-23T06:10:41.069Z,97992.81
2022-10-23T06:13:43.159Z,97990.25
2022-10-23T06:16:44.633Z,97989.38
2022-10-23T06:19:46.310Z,97991.13
2022-10-23T06:22:47.694Z,97991.97
2022-10-23T06:25:53.551Z,97986.81
2022-10-23T06:28:55.533Z,97992.84
2022-10-23T06:31:56.885Z,97997.16
2022-10-23T06:34:58.228Z,97997.97
2022-10-23T06:37:59.566Z,97999.75
2022-10-23T06:41:00.942Z,97996.19
2022-10-23T06:44:02.294Z,97990.06
2022-10-23T06:47:03.816Z,97993.44
2022-10-23T06:50:05.266Z,97996.91
2022-10-23T06:53:06.654Z,97995.97
2022-10-23T06:56:08.045Z,97988.97
2022-10-23T06:59:09.379Z,97989.78
2022-10-23T07:02:10.747Z,97997.63
2022-10-23T07:05:13.704Z,97995.84
2022-10-23T07:08:15.381Z,97994.91
2022-10-23T07:11:16.714Z,98000.09
2022-10-23T07:14:18.150Z,98006.09
2022-10-23T07:17:19.510Z,97995.59
2022-10-23T07:20:20.844Z,97987.66
2022-10-23T07:23:22.165Z,97980.63
2022-10-23T07:26:23.604Z,97981.31
2022-10-23T07:29:24.953Z,97973.44
2022-10-23T07:32:28.159Z,97971.56
2022-10-23T07:35:29.719Z,97959.34
2022-10-23T07:38:31.073Z,97956.50
2022-10-23T07:41:32.464Z,97949.28
2022-10-23T07:44:33.814Z,97954.34
2022-10-23T07:47:35.237Z,97953.34
2022-10-23T07:50:37.703Z,97954.13
2022-10-23T07:53:39.041Z,97962.81
2022-10-23T07:56:40.405Z,97956.56
2022-10-23T07:59:41.730Z,97954.81
2022-10-23T08:02:43.421Z,97962.44
2022-10-23T08:05:44.979Z,97966.56
2022-10-23T08:08:46.372Z,97964.41
2022-10-23T08:11:47.853Z,97955.44
2022-10-23T08:14:49.202Z,97968.31
2022-10-23T08:17:50.545Z,97947.78
2022-10-23T08:20:52.514Z,97946.44
2022-10-23T08:23:54.798Z,97953.41
2022-10-23T08:26:56.143Z,97970.22
2022-10-23T08:29:57.477Z,98047.06
2022-10-23T08:32:58.832Z,98159.06
2022-10-23T08:36:00.230Z,98256.19
2022-10-23T08:39:01.569Z,98277.06
2022-10-23T08:42:02.959Z,98272.25
2022-10-23T08:45:08.202Z,98287.34
2022-10-23T08:48:18.609Z,98273.44
2022-10-23T08:51:27.670Z,98261.38
2022-10-23T08:54:42.844Z,98257.56
2022-10-23T08:58:03.112Z,98260.59
2022-10-23T09:01:27.866Z,98247.34
2022-10-23T09:04:29.292Z,98244.56
2022-10-23T09:07:32.415Z,98244.38
2022-10-23T09:10:33.754Z,98242.16
2022-10-23T09:13:53.650Z,98233.78
2022-10-23T09:20:19.437Z,98235.81
2022-10-23T09:23:23.912Z,98256.88
2022-10-23T09:26:25.265Z,98249.69
2022-10-23T09:29:26.626Z,98244.81
2022-10-23T09:32:37.576Z,98233.00
2022-10-23T09:35:38.925Z,98239.13
2022-10-23T09:38:46.281Z,98238.31
2022-10-23T09:41:47.644Z,98237.00
2022-10-23T09:44:49.605Z,98232.72
2022-10-23T09:47:50.988Z,98219.63
2022-10-23T09:50:56.488Z,98226.38
2022-10-23T09:53:57.934Z,98210.38
2022-10-23T09:57:14.522Z,98209.13
2022-10-23T10:00:23.405Z,98195.97
2022-10-23T10:03:24.777Z,98194.81
2022-10-23T10:06:27.155Z,98189.81
2022-10-23T10:09:28.634Z,98202.31
2022-10-23T10:12:29.957Z,98199.22
2022-10-23T10:15:32.549Z,98191.53
2022-10-23T10:18:36.930Z,98193.59
2022-10-23T10:21:38.269Z,98204.13
2022-10-23T10:24:53.057Z,98205.78
2022-10-23T10:27:54.391Z,98190.41
2022-10-23T10:31:00.393Z,98202.25
2022-10-23T10:34:17.051Z,98193.16
2022-10-23T10:37:25.066Z,98200.72
2022-10-23T10:40:28.226Z,98198.41
2022-10-23T10:43:41.740Z,98198.59
2022-10-23T10:46:52.266Z,98190.22
2022-10-23T10:49:56.764Z,98189.69
2022-10-23T10:53:13.379Z,98181.06
2022-10-23T10:56:15.202Z,98181.06
2022-10-23T10:59:19.739Z,98180.72
2022-10-23T11:02:26.922Z,98168.16
2022-10-23T11:05:30.449Z,98177.22
2022-10-23T11:08:44.404Z,98157.78
2022-10-23T11:11:55.431Z,98166.97
2022-10-23T11:14:56.810Z,98163.44
2022-10-23T11:17:58.799Z,98156.56
2022-10-23T11:21:08.547Z,98157.00
2022-10-23T11:24:14.523Z,98141.91
2022-10-23T11:27:39.171Z,98140.50
2022-10-23T11:30:44.306Z,98137.31
2022-10-23T11:33:51.727Z,98138.03
2022-10-23T11:36:53.474Z,98136.94
2022-10-23T11:40:10.119Z,98130.63
2022-10-23T11:43:11.444Z,98127.09
2022-10-23T11:46:15.424Z,98115.81
2022-10-23T11:49:20.333Z,98131.81
2022-10-23T11:52:22.303Z,98122.25
2022-10-23T11:55:27.597Z,98116.88
2022-10-23T11:58:40.736Z,98111.81
2022-10-23T12:01:42.256Z,98107.28
2022-10-23T12:04:47.639Z,98101.44
2022-10-23T12:07:53.209Z,98098.81
2022-10-23T12:10:55.403Z,98087.56
2022-10-23T12:13:56.764Z,98100.28
2022-10-23T12:16:58.151Z,98086.31
2022-10-23T12:20:08.798Z,98081.94
2022-10-23T12:23:23.623Z,98075.53
2022-10-23T12:26:33.994Z,98064.22
2022-10-23T12:29:41.929Z,98053.09
2022-10-23T12:32:54.185Z,98050.16
2022-10-23T12:35:59.998Z,98038.19
2022-10-23T12:39:01.955Z,98040.34
2022-10-23T12:42:03.380Z,98032.28
2022-10-23T12:45:10.781Z,98021.75
2022-10-23T12:48:18.827Z,98019.88
2022-10-23T12:51:24.306Z,98013.47
2022-10-23T12:54:25.722Z,98008.22
2022-10-23T12:57:28.178Z,98012.75
2022-10-23T13:00:29.549Z,98016.53
2022-10-23T13:03:31.137Z,98011.56
2022-10-23T13:06:32.525Z,98006.06
2022-10-23T13:09:35.166Z,98009.25
2022-10-23T13:12:36.591Z,98000.44
2022-10-23T13:15:39.454Z,97988.69
2022-10-23T13:18:41.400Z,97985.44
2022-10-23T13:21:45.285Z,97985.78
2022-10-23T13:24:46.794Z,97975.81
2022-10-23T13:27:48.163Z,97974.44
2022-10-23T13:31:08.442Z,97976.44
2022-10-23T13:34:28.663Z,97977.00
2022-10-23T13:37:30.448Z,97980.44
2022-10-23T13:40:31.829Z,97983.63
2022-10-23T13:43:33.224Z,97970.47
2022-10-23T13:46:34.605Z,97985.09
2022-10-23T13:49:35.945Z,97979.09
2022-10-23T13:52:37.305Z,97986.34
2022-10-23T13:55:40.466Z,97994.09
2022-10-23T13:58:42.036Z,97982.97
2022-10-23T14:01:43.529Z,97991.72
2022-10-23T14:04:46.382Z,97982.53
2022-10-23T14:07:47.736Z,97978.94
2022-10-23T14:10:49.133Z,97986.28
2022-10-23T14:13:50.565Z,97974.28
2022-10-23T14:16:52.809Z,97973.94
2022-10-23T14:19:55.514Z,97971.88
2022-10-23T14:22:56.861Z,97958.41
2022-10-23T14:26:04.781Z,97951.19
2022-10-23T14:29:09.836Z,97955.84
2022-10-23T14:32:15.358Z,97971.06
2022-10-23T14:35:16.727Z,97965.09
2022-10-23T14:38:18.112Z,97968.88
2022-10-23T14:41:19.560Z,97965.47
2022-10-23T14:44:20.944Z,97959.41
2022-10-23T14:47:23.681Z,97953.91
2022-10-23T14:50:25.022Z,97947.28
2022-10-23T14:53:26.730Z,97930.22
2022-10-23T14:56:32.017Z,97924.16
2022-10-23T14:59:33.381Z,97925.59
2022-10-23T15:02:34.728Z,97929.00
2022-10-23T15:05:36.053Z,97914.03
2022-10-23T15:08:37.475Z,97911.03
2022-10-23T15:11:38.905Z,97896.31
2022-10-23T15:14:40.290Z,97895.84
2022-10-23T15:17:42.329Z,97902.72
2022-10-23T15:20:43.714Z,97876.94
2022-10-23T15:23:45.306Z,97856.81
2022-10-23T15:26:46.838Z,97855.97
2022-10-23T15:29:48.182Z,97836.09
2022-10-23T15:32:49.534Z,97829.44
2022-10-23T15:35:51.114Z,97798.81
2022-10-23T15:38:52.471Z,97804.75
2022-10-23T15:41:54.791Z,97804.88
2022-10-23T15:44:56.149Z,97789.38
2022-10-23T15:47:57.496Z,97791.63
2022-10-23T15:50:59.182Z,97784.84
2022-10-23T15:54:00.537Z,97795.41
2022-10-23T15:57:01.966Z,97791.41
2022-10-23T16:00:04.288Z,97775.19
2022-10-23T16:03:05.635Z,97776.38
2022-10-23T16:06:10.847Z,97775.31
2022-10-23T16:09:12.225Z,97783.41
2022-10-23T16:12:13.550Z,97784.56
2022-10-23T16:15:14.997Z,97800.44
2022-10-23T16:18:18.009Z,97815.72
2022-10-23T16:21:20.196Z,97789.00
2022-10-23T16:24:21.629Z,97805.06
2022-10-23T16:27:22.986Z,97804.38
2022-10-23T16:30:24.327Z,97786.22
2022-10-23T16:33:25.754Z,97784.78
2022-10-23T16:36:27.354Z,97771.84
2022-10-23T16:39:30.408Z,97794.97
2022-10-23T16:42:31.893Z,97780.09
2022-10-23T16:45:35.669Z,97808.28
2022-10-23T16:48:39.199Z,97803.16
2022-10-23T16:51:40.550Z,97798.88
2022-10-23T16:54:44.984Z,97808.75
2022-10-23T16:57:46.312Z,97796.50
2022-10-23T17:00:55.329Z,97794.75
2022-10-23T17:03:56.766Z,97780.06
2022-10-23T17:06:58.110Z,97790.06
2022-10-23T17:09:59.505Z,97792.09
2022-10-23T17:13:00.838Z,97801.84
2022-10-23T17:16:03.181Z,97779.09
2022-10-23T17:19:15.816Z,97797.50
2022-10-23T17:22:26.186Z,97811.78
2022-10-23T17:25:27.569Z,97838.28
2022-10-23T17:28:28.944Z,97852.31
2022-10-23T17:31:31.435Z,97848.69
2022-10-23T17:34:32.833Z,97864.59
2022-10-23T17:37:34.157Z,97888.75
2022-10-23T17:40:35.595Z,97856.66
2022-10-23T17:43:37.052Z,97854.06
2022-10-23T17:46:38.428Z,97855.06
2022-10-23T17:49:42.775Z,97864.03
2022-10-23T17:52:48.068Z,97891.44
2022-10-23T17:55:49.428Z,97886.88
2022-10-23T17:58:51.170Z,98005.91
2022-10-23T18:01:53.277Z,98045.41
2022-10-23T18:04:54.760Z,98083.97
2022-10-23T18:07:56.925Z,98054.75
2022-10-23T18:10:58.288Z,98012.81
2022-10-23T18:17:06.188Z,98009.97
2022-10-23T18:20:07.881Z,98011.00
2022-10-23T18:23:09.283Z,98015.31
2022-10-23T18:26:16.026Z,98001.25
2022-10-23T18:29:17.522Z,97993.63
2022-10-23T18:32:18.955Z,98000.94
2022-10-23T18:35:20.322Z,98008.13
2022-10-23T18:38:21.694Z,98018.91
2022-10-23T18:41:23.777Z,98020.69
2022-10-23T18:44:25.363Z,98016.59
2022-10-23T18:47:26.697Z,98022.81
2022-10-23T18:50:28.066Z,98011.34
2022-10-23T18:53:29.418Z,98001.97
2022-10-23T18:56:30.837Z,98003.69
2022-10-23T18:59:32.222Z,98011.75
2022-10-23T19:02:33.669Z,97990.63
2022-10-23T19:05:35.187Z,97987.28
2022-10-23T19:08:39.956Z,97969.13
2022-10-23T19:11:41.364Z,97952.72
2022-10-23T19:14:42.714Z,97939.03
2022-10-23T19:17:44.039Z,97938.28
2022-10-23T19:20:45.374Z,97940.88
2022-10-23T19:23:46.709Z,97928.59
2022-10-23T19:26:48.188Z,97924.38
2022-10-23T19:29:49.546Z,97918.38
2022-10-23T19:32:51.110Z,97909.81
2022-10-23T19:35:52.489Z,97913.38
2022-10-23T19:38:53.867Z,97910.91
2022-10-23T19:41:55.278Z,97916.28
2022-10-23T19:44:56.648Z,97921.63
2022-10-23T19:47:58.006Z,97910.44
2022-10-23T19:50:59.372Z,97922.63
2022-10-23T19:54:00.760Z,97917.38
2022-10-23T19:57:02.448Z,97926.06
2022-10-23T20:00:04.785Z,97914.91
2022-10-23T20:03:06.205Z,97921.28
2022-10-23T20:06:08.354Z,97915.22
2022-10-23T20:09:09.902Z,97913.44
2022-10-23T20:12:11.255Z,97905.81
2022-10-23T20:15:12.601Z,97903.28
2022-10-23T20:18:13.966Z,97912.16
2022-10-23T20:21:15.307Z,97904.38
2022-10-23T20:24:17.128Z,97892.22
2022-10-23T20:27:18.677Z,97900.25
2022-10-23T20:30:20.040Z,97895.06
2022-10-23T20:33:21.389Z,97897.59
2022-10-23T20:36:29.780Z,97890.56
2022-10-23T20:39:33.364Z,97910.75
2022-10-23T20:42:34.707Z,97888.94
2022-10-23T20:45:36.088Z,97903.88
2022-10-23T20:48:41.317Z,97909.13
2022-10-23T20:51:42.666Z,97912.63
2022-10-23T20:54:44.124Z,97900.59
2022-10-23T20:57:45.947Z,97930.28
2022-10-23T21:00:47.551Z,97929.50
2022-10-23T21:03:49.292Z,97926.13
2022-10-23T21:07:08.965Z,97922.84
2022-10-23T21:10:11.593Z,97934.06
2022-10-23T21:13:12.982Z,97923.63
2022-10-23T21:16:14.732Z,97935.75
2022-10-23T21:19:16.167Z,97929.66
2022-10-23T21:22:17.623Z,97959.06
2022-10-23T21:25:19.008Z,98012.44
2022-10-23T21:28:20.370Z,98018.66
2022-10-23T21:31:21.698Z,98000.00
2022-10-23T21:34:23.550Z,97989.59
2022-10-23T21:37:25.500Z,97982.75
2022-10-23T21:40:26.841Z,97980.88
2022-10-23T21:43:28.197Z,98013.91
2022-10-23T21:46:29.670Z,98010.47
2022-10-23T21:49:31.017Z,98031.31
2022-10-23T21:52:32.409Z,98021.75
2022-10-23T21:55:33.779Z,98048.53
2022-10-23T21:58:35.125Z,98062.50
2022-10-23T22:01:36.543Z,98082.38
2022-10-23T22:04:38.057Z,98090.25
2022-10-23T22:07:39.471Z,98074.88
2022-10-23T22:10:40.798Z,98074.00
2022-10-23T22:13:42.835Z,98088.63
2022-10-23T22:16:44.216Z,98090.25
2022-10-23T22:19:45.595Z,98104.63
2022-10-23T22:22:46.969Z,98107.09
2022-10-23T22:25:48.327Z,98097.34
2022-10-23T22:28:50.402Z,98098.19
2022-10-23T22:31:51.999Z,98099.34
2022-10-23T22:34:53.734Z,98101.44
2022-10-23T22:37:55.191Z,98112.03
2022-10-23T22:40:56.519Z,98093.63
2022-10-23T22:43:58.000Z,98107.00
2022-10-23T22:46:59.360Z,98100.25
2022-10-23T22:50:00.696Z,98107.22
2022-10-23T22:53:02.071Z,98105.59
2022-10-23T22:56:07.074Z,98106.59
2022-10-23T22:59:08.421Z,98122.38
2022-10-23T23:02:10.086Z,98117.41
2022-10-23T23:05:12.433Z,98119.91
2022-10-23T23:08:14.343Z,98125.16
2022-10-23T23:11:16.024Z,98107.13
2022-10-23T23:14:20.323Z,98114.56
2022-10-23T23:17:24.662Z,98116.44
2022-10-23T23:20:26.044Z,98129.06
2022-10-23T23:23:27.393Z,98113.25
2022-10-23T23:26:30.239Z,98113.50
2022-10-23T23:29:31.707Z,98103.34
2022-10-23T23:32:33.465Z,98101.56
2022-10-23T23:35:34.844Z,98106.81
2022-10-23T23:38:36.363Z,98112.00
2022-10-23T23:41:37.749Z,98112.78
2022-10-23T23:44:45.987Z,98116.00
2022-10-23T23:47:57.554Z,98114.91
2022-10-23T23:50:58.950Z,98119.28
2022-10-23T23:54:00.338Z,98118.63
2022-10-23T23:57:05.685Z,98106.53
